Pomona Park, Florida
Current Conditions -  °F | °C
As of 12:15 PM on Thursday 27 Nov 2014 (Local Time) from K28J Reporting Station
Clear Clear  
Wind Chill: 63°   Ceiling: Unl
Heat Index: 63°   Visibility: 10mi
Dew Point: 37°   Wind: 9mph
Humidity: 39%   Direction: 330°NNW
Pressure: 30.24"   Gusts: 17mph
Location:  29.5°N, 81.59°W
Report Text: K28J 271715Z AUTO 33008G15KT 10SM CLR 17/03 A3024 RMK AO2
Loading
Personal Weather Stations






























Interactive Weather Map New forecast layout! Learn more

10-Day Weather Forecast

Advertisements
Track Severe Weather on mobile